首页
METAR-TAF:

METAR-TAF

机场 :

Altenstadt, 德国

纬度: 47-50N, 经度: 010-52E, 海拔: 739米

当前天气观测

该预报发布于1小时和3分钟前的18:20 UTC
风速8节,风向西转西南
温度 17°C
湿度 77%
气压 1017 hPa
能见度10公里或以上
少量云层高于2600英尺, 积雨云.
多云层高于3400英尺

METAR: ETHA 211820Z 24008KT 9999 FEW026CB BKN034 17/13 Q1017 BLU

时间: 21:23 (19:23 UTC)

预报

该预报发布于6小时和10分钟前的13:13 UTC
预报有效从21日的 14点(UTC)到 21日的 23点(UTC)
风速7节,风向东北
能见度10公里或以上
散云层高于4000英尺

TAF: ETHA 211313Z 2114/2123 05007KT 9999 NSW SCT040

超过4000个机场的气象观测和天气预报(METAR&TAF报告)。

可查询的气象台以黄色和红色小点在地图上表示。

将鼠标移到小点上方,可查看气象台名称。

然后点击查看天气观测和预报。

如需切换地图:点击带黑十字的绿色按钮放大地图;点击带横线的绿色按钮缩小地图;或者点击绿色箭头查看邻近地区的地图。


METAR-TAF: